Terminal Aerodrome Forecast
Issued by NWS

Home | Current Version | Previous Version | Text Only | Print | Product List | Glossary On
Versions: 1 2 3 4 5 6 7 8 9 10 11 12
000
FTUS45 KREV 221720
TAFMMH
TAF
KMMH 221720Z 2218/2318 12008KT P6SM SKC
     FM230000 28011G18KT P6SM FEW070 SCT150
     FM230400 30009KT P6SM FEW150=

USA.gov is the U.S. government's official web portal to all federal, state and local government web resources and services.